createdAt,value
2018-04-28T00:01:31.005Z,11.10
2018-04-28T00:03:59.980Z,11.10
2018-04-28T00:06:28.288Z,11.10
2018-04-28T00:08:57.372Z,11.10
2018-04-28T00:11:25.693Z,11.10
2018-04-28T00:13:53.986Z,11.10
2018-04-28T00:16:40.174Z,11.10
2018-04-28T00:19:08.524Z,11.20
2018-04-28T00:22:12.916Z,11.20
2018-04-28T00:24:53.541Z,11.20
2018-04-28T00:27:31.568Z,11.20
2018-04-28T00:30:07.379Z,11.20
2018-04-28T00:32:35.700Z,11.20
2018-04-28T00:35:05.027Z,11.20
2018-04-28T00:37:42.130Z,11.10
2018-04-28T00:40:23.396Z,11.10
2018-04-28T00:42:58.014Z,10.90
2018-04-28T00:45:36.405Z,10.80
2018-04-28T00:48:15.333Z,10.80
2018-04-28T00:50:50.196Z,10.70
2018-04-28T00:53:19.399Z,10.60
2018-04-28T00:55:51.920Z,10.50
2018-04-28T01:12:05.003Z,10.50
2018-04-28T01:14:44.387Z,10.50
2018-04-28T01:17:22.634Z,10.60
2018-04-28T01:19:59.810Z,10.60
2018-04-28T01:22:50.788Z,10.60
2018-04-28T01:38:41.944Z,10.70
2018-04-28T01:41:30.500Z,10.70
2018-04-28T01:44:03.780Z,10.80
2018-04-28T01:46:42.448Z,10.70
2018-04-28T01:49:12.130Z,10.80
2018-04-28T01:51:51.889Z,10.80
2018-04-28T02:11:25.622Z,11.30
2018-04-28T02:13:59.124Z,11.30
2018-04-28T02:16:40.550Z,11.30
2018-04-28T02:32:56.344Z,11.40
2018-04-28T02:35:31.981Z,11.40
2018-04-28T02:38:34.300Z,11.40
2018-04-28T02:41:07.104Z,11.40
2018-04-28T02:57:34.056Z,11.40
2018-04-28T03:13:27.923Z,11.50
2018-04-28T03:16:00.090Z,11.50
2018-04-28T03:18:40.025Z,11.50
2018-04-28T03:21:09.083Z,11.60
2018-04-28T03:23:42.612Z,11.60
2018-04-28T03:26:34.321Z,11.60
2018-04-28T03:29:09.379Z,11.70
2018-04-28T03:31:40.608Z,11.60
2018-04-28T03:47:41.099Z,11.30
2018-04-28T03:50:25.692Z,11.20
2018-04-28T03:53:02.696Z,11.10
2018-04-28T03:55:30.998Z,11.00
2018-04-28T03:58:17.939Z,10.90
2018-04-28T04:01:04.081Z,10.90
2018-04-28T04:03:33.241Z,10.80
2018-04-28T04:33:41.989Z,10.50
2018-04-28T04:36:15.630Z,10.50
2018-04-28T04:38:46.875Z,10.50
2018-04-28T04:41:26.497Z,10.70
2018-04-28T04:57:48.951Z,11.30
2018-04-28T05:14:09.365Z,12.20
2018-04-28T05:16:55.831Z,12.40
2018-04-28T05:19:31.728Z,12.30
2018-04-28T05:35:53.539Z,12.30
2018-04-28T05:38:36.605Z,12.40
2018-04-28T05:41:23.548Z,12.60
2018-04-28T05:58:13.145Z,13.00
2018-04-28T06:00:57.358Z,13.00
2018-04-28T06:17:35.400Z,12.80
2018-04-28T06:33:36.013Z,12.80
2018-04-28T06:36:04.324Z,12.80
2018-04-28T06:38:32.633Z,13.00
2018-04-28T06:41:00.947Z,13.20
2018-04-28T06:43:29.275Z,13.30
2018-04-28T06:45:57.569Z,13.40
2018-04-28T06:48:25.874Z,13.60
2018-04-28T06:50:54.205Z,13.80
2018-04-28T06:53:22.511Z,14.10
2018-04-28T06:55:50.820Z,14.30
2018-04-28T06:58:19.127Z,14.50
2018-04-28T07:00:48.215Z,15.00
2018-04-28T07:03:16.553Z,14.90
2018-04-28T07:05:44.869Z,15.10
2018-04-28T07:08:13.197Z,15.20
2018-04-28T07:10:41.526Z,15.20
2018-04-28T07:13:09.817Z,15.30
2018-04-28T07:15:38.136Z,15.40
2018-04-28T07:18:06.443Z,15.60
2018-04-28T07:20:34.853Z,15.80
2018-04-28T07:23:03.147Z,16.00
2018-04-28T07:25:31.451Z,16.20
2018-04-28T07:28:00.533Z,16.30
2018-04-28T07:30:29.013Z,16.30
2018-04-28T07:32:57.357Z,16.30
2018-04-28T07:35:25.693Z,16.10
2018-04-28T07:37:54.749Z,15.60
2018-04-28T07:40:23.293Z,15.50
2018-04-28T07:42:51.599Z,15.20
2018-04-28T07:45:19.909Z,14.80
2018-04-28T07:47:48.429Z,14.50
2018-04-28T07:50:17.526Z,14.10
2018-04-28T07:52:46.586Z,14.00
2018-04-28T07:55:14.919Z,14.00
2018-04-28T07:57:43.971Z,14.20
2018-04-28T08:00:12.379Z,14.20
2018-04-28T08:02:40.626Z,14.50
2018-04-28T08:05:09.198Z,14.80
2018-04-28T08:07:41.208Z,15.20
2018-04-28T08:10:09.526Z,15.60
2018-04-28T08:12:37.819Z,15.90
2018-04-28T08:15:06.137Z,16.10
2018-04-28T08:17:34.595Z,16.20
2018-04-28T08:20:02.924Z,16.20
2018-04-28T08:22:31.988Z,16.00
2018-04-28T08:25:00.352Z,16.00
2018-04-28T08:27:28.799Z,15.90
2018-04-28T08:29:57.872Z,15.60
2018-04-28T08:32:26.192Z,15.60
2018-04-28T08:34:54.482Z,15.50
2018-04-28T08:37:22.938Z,15.40
2018-04-28T08:39:51.231Z,15.40
2018-04-28T08:42:19.675Z,15.30
2018-04-28T08:44:47.967Z,15.40
2018-04-28T08:47:16.436Z,15.60
2018-04-28T08:49:45.452Z,16.10
2018-04-28T08:52:13.770Z,16.10
2018-04-28T08:54:42.091Z,16.30
2018-04-28T08:57:10.435Z,16.60
2018-04-28T09:13:18.333Z,17.00
2018-04-28T09:15:46.637Z,17.00
2018-04-28T09:18:14.939Z,17.00
2018-04-28T09:20:44.007Z,17.50
2018-04-28T09:23:12.313Z,17.50
2018-04-28T09:25:41.388Z,18.50
2018-04-28T09:28:09.737Z,18.40
2018-04-28T09:30:38.047Z,18.80
2018-04-28T09:33:06.452Z,19.10
2018-04-28T09:35:34.795Z,19.40
2018-04-28T09:38:03.103Z,19.80
2018-04-28T09:40:31.413Z,20.10
2018-04-28T09:43:00.513Z,20.30
2018-04-28T09:45:28.817Z,20.20
2018-04-28T09:47:57.125Z,20.20
2018-04-28T09:50:25.445Z,20.10
2018-04-28T09:52:54.510Z,20.00
2018-04-28T09:55:22.816Z,20.00
2018-04-28T09:58:05.717Z,19.80
2018-04-28T10:13:59.729Z,19.60
2018-04-28T10:16:28.070Z,19.60
2018-04-28T10:18:57.139Z,19.00
2018-04-28T10:21:25.462Z,19.00
2018-04-28T10:23:53.786Z,18.60
2018-04-28T10:26:22.098Z,18.20
2018-04-28T10:28:50.413Z,17.70
2018-04-28T10:31:18.745Z,17.30
2018-04-28T10:33:47.087Z,17.10
2018-04-28T10:36:15.425Z,17.30
2018-04-28T10:38:43.782Z,17.60
2018-04-28T10:41:12.079Z,17.90
2018-04-28T10:43:40.375Z,18.10
2018-04-28T10:46:09.442Z,18.60
2018-04-28T10:48:37.739Z,18.50
2018-04-28T10:51:06.855Z,19.20
2018-04-28T10:53:35.975Z,19.70
2018-04-28T10:56:04.249Z,19.70
2018-04-28T10:58:33.319Z,20.90
2018-04-28T11:01:01.622Z,20.80
2018-04-28T11:03:30.691Z,21.60
2018-04-28T11:05:58.997Z,21.60
2018-04-28T11:08:28.103Z,22.00
2018-04-28T11:10:57.195Z,22.10
2018-04-28T11:13:26.272Z,21.90
2018-04-28T11:15:54.581Z,21.80
2018-04-28T11:18:23.673Z,21.20
2018-04-28T11:20:52.746Z,21.30
2018-04-28T11:23:21.079Z,21.20
2018-04-28T11:25:49.425Z,21.10
2018-04-28T11:28:17.688Z,21.00
2018-04-28T11:30:46.012Z,20.70
2018-04-28T11:33:14.321Z,20.40
2018-04-28T11:35:42.619Z,20.20
2018-04-28T11:38:10.949Z,20.00
2018-04-28T11:40:40.177Z,19.90
2018-04-28T11:43:08.529Z,19.90
2018-04-28T11:45:37.660Z,20.10
2018-04-28T11:48:05.969Z,20.10
2018-04-28T11:50:34.290Z,20.30
2018-04-28T11:53:03.387Z,20.50
2018-04-28T11:55:32.459Z,20.40
2018-04-28T11:58:00.809Z,20.40
2018-04-28T12:00:29.121Z,20.40
2018-04-28T12:02:57.798Z,20.70
2018-04-28T12:05:26.104Z,21.30
2018-04-28T12:07:54.409Z,21.50
2018-04-28T12:10:23.485Z,21.90
2018-04-28T12:12:51.789Z,21.90
2018-04-28T12:15:20.127Z,22.20
2018-04-28T12:17:49.146Z,22.30
2018-04-28T12:20:17.463Z,22.40
2018-04-28T12:22:45.787Z,22.40
2018-04-28T12:25:14.096Z,22.00
2018-04-28T12:27:43.225Z,20.90
2018-04-28T12:30:11.572Z,20.90
2018-04-28T12:32:40.657Z,19.70
2018-04-28T12:35:08.976Z,19.60
2018-04-28T12:37:37.290Z,18.80
2018-04-28T12:40:05.596Z,18.10
2018-04-28T12:42:34.060Z,17.50
2018-04-28T12:45:03.225Z,16.40
2018-04-28T12:47:31.536Z,16.40
2018-04-28T12:49:59.840Z,16.00
2018-04-28T12:52:28.153Z,15.50
2018-04-28T12:54:57.242Z,15.00
2018-04-28T12:57:25.571Z,14.90
2018-04-28T12:59:53.880Z,14.90
2018-04-28T13:02:22.192Z,14.90
2018-04-28T13:04:51.273Z,15.10
2018-04-28T13:07:19.597Z,15.10
2018-04-28T13:09:47.941Z,15.20
2018-04-28T13:12:16.258Z,15.30
2018-04-28T13:14:44.578Z,15.40
2018-04-28T13:17:12.887Z,15.40
2018-04-28T13:19:41.959Z,15.30
2018-04-28T13:22:10.277Z,15.20
2018-04-28T13:24:39.349Z,15.30
2018-04-28T13:27:07.656Z,15.20
2018-04-28T13:29:36.745Z,15.30
2018-04-28T13:32:05.061Z,15.30
2018-04-28T13:34:33.427Z,15.40
2018-04-28T13:37:02.619Z,15.40
2018-04-28T13:39:31.685Z,15.40
2018-04-28T13:42:01.497Z,15.40
2018-04-28T13:44:29.805Z,15.40
2018-04-28T13:46:58.885Z,15.60
2018-04-28T13:49:27.194Z,15.60
2018-04-28T13:51:56.270Z,15.80
2018-04-28T13:54:24.582Z,15.80
2018-04-28T13:56:53.655Z,16.20
2018-04-28T13:59:21.960Z,16.20
2018-04-28T14:01:51.037Z,16.40
2018-04-28T14:04:19.350Z,16.40
2018-04-28T14:06:48.415Z,16.20
2018-04-28T14:09:16.746Z,15.90
2018-04-28T14:11:45.392Z,15.80
2018-04-28T14:14:13.745Z,15.80
2018-04-28T14:16:42.065Z,15.90
2018-04-28T14:19:11.144Z,15.90
2018-04-28T14:21:39.469Z,15.90
2018-04-28T14:24:07.828Z,16.00
2018-04-28T14:26:36.933Z,16.20
2018-04-28T14:29:06.048Z,16.30
2018-04-28T14:31:34.347Z,16.30
2018-04-28T14:34:02.663Z,16.60
2018-04-28T14:36:30.987Z,16.90
2018-04-28T14:38:59.289Z,17.00
2018-04-28T14:41:27.594Z,17.00
2018-04-28T14:43:55.892Z,17.00
2018-04-28T14:46:24.232Z,16.90
2018-04-28T14:48:52.541Z,16.90
2018-04-28T14:51:20.848Z,17.00
2018-04-28T14:53:49.950Z,17.20
2018-04-28T14:56:19.035Z,17.30
2018-04-28T14:58:48.153Z,17.50
2018-04-28T15:01:17.284Z,17.90
2018-04-28T15:03:45.560Z,17.90
2018-04-28T15:06:13.886Z,18.40
2018-04-28T15:08:42.209Z,19.00
2018-04-28T15:11:10.553Z,19.50
2018-04-28T15:13:38.825Z,19.90
2018-04-28T15:16:07.114Z,20.10
2018-04-28T15:18:35.428Z,20.10
2018-04-28T15:21:03.736Z,19.90
2018-04-28T15:23:32.048Z,19.60
2018-04-28T15:26:00.607Z,19.30
2018-04-28T15:28:29.032Z,19.00
2018-04-28T15:30:57.415Z,18.70
2018-04-28T15:33:25.722Z,18.50
2018-04-28T15:35:54.039Z,18.20
2018-04-28T15:38:22.350Z,17.80
2018-04-28T15:40:50.654Z,17.50
2018-04-28T15:43:19.745Z,16.90
2018-04-28T15:45:48.812Z,16.60
2018-04-28T15:48:17.126Z,16.60
2018-04-28T15:50:45.454Z,16.50
2018-04-28T15:53:13.758Z,16.50
2018-04-28T15:55:42.065Z,16.60
2018-04-28T15:58:11.146Z,16.80
2018-04-28T16:00:39.449Z,16.80
2018-04-28T16:03:08.538Z,16.90
2018-04-28T16:05:36.861Z,16.90
2018-04-28T16:08:05.181Z,17.10
2018-04-28T16:10:33.494Z,17.40
2018-04-28T16:13:02.568Z,18.10
2018-04-28T16:15:30.888Z,18.10
2018-04-28T16:17:59.192Z,18.40
2018-04-28T16:20:27.502Z,18.60
2018-04-28T16:22:55.807Z,18.60
2018-04-28T16:25:24.101Z,18.70
2018-04-28T16:27:53.230Z,18.80
2018-04-28T16:30:21.543Z,18.80
2018-04-28T16:32:49.845Z,18.80
2018-04-28T16:35:18.151Z,18.80
2018-04-28T16:37:46.450Z,18.70
2018-04-28T16:40:14.759Z,18.60
2018-04-28T16:42:43.065Z,18.40
2018-04-28T16:45:11.419Z,18.30
2018-04-28T16:47:39.729Z,18.10
2018-04-28T16:50:08.184Z,17.90
2018-04-28T16:52:36.540Z,17.80
2018-04-28T16:55:04.850Z,17.60
2018-04-28T16:57:33.144Z,17.60
2018-04-28T17:00:01.572Z,17.40
2018-04-28T17:02:32.171Z,17.30
2018-04-28T17:05:00.520Z,17.30
2018-04-28T17:07:28.818Z,17.30
2018-04-28T17:09:57.247Z,17.40
2018-04-28T17:12:25.568Z,17.50
2018-04-28T17:14:53.938Z,17.70
2018-04-28T17:17:40.538Z,17.70
2018-04-28T17:20:08.900Z,17.80
2018-04-28T17:22:37.241Z,17.90
2018-04-28T17:25:06.335Z,17.90
2018-04-28T17:27:35.512Z,17.90
2018-04-28T17:30:03.901Z,17.90
2018-04-28T17:32:33.081Z,17.80
2018-04-28T17:35:01.537Z,17.50
2018-04-28T17:37:29.944Z,17.40
2018-04-28T17:39:58.363Z,17.20
2018-04-28T17:42:26.753Z,17.00
2018-04-28T17:44:56.603Z,16.60
2018-04-28T17:50:08.592Z,16.40
2018-04-28T17:52:38.870Z,16.00
2018-04-28T17:55:07.239Z,16.00
2018-04-28T17:57:35.593Z,15.80
2018-04-28T18:00:04.682Z,15.40
2018-04-28T18:02:33.031Z,15.40
2018-04-28T18:05:01.431Z,15.30
2018-04-28T18:07:29.740Z,15.10
2018-04-28T18:10:00.523Z,14.70
2018-04-28T18:12:28.855Z,14.70
2018-04-28T18:14:57.940Z,14.50
2018-04-28T18:17:26.320Z,14.50
2018-04-28T18:19:54.866Z,14.30
2018-04-28T18:22:24.370Z,14.20
2018-04-28T18:24:52.680Z,14.10
2018-04-28T18:27:21.061Z,13.90
2018-04-28T18:29:49.444Z,13.80
2018-04-28T18:32:17.755Z,13.70
2018-04-28T18:34:46.146Z,13.70
2018-04-28T18:37:15.264Z,13.50
2018-04-28T18:39:43.728Z,13.50
2018-04-28T18:42:12.869Z,13.40
2018-04-28T18:44:41.267Z,13.30
2018-04-28T18:47:09.671Z,13.30
2018-04-28T18:49:37.997Z,13.30
2018-04-28T18:52:07.111Z,13.10
2018-04-28T18:54:37.316Z,13.10
2018-04-28T18:57:05.639Z,13.00
2018-04-28T18:59:34.107Z,12.90
2018-04-28T19:02:02.417Z,12.80
2018-04-28T19:04:30.824Z,12.70
2018-04-28T19:06:59.910Z,12.50
2018-04-28T19:09:28.276Z,12.50
2018-04-28T19:11:56.619Z,12.40
2018-04-28T19:14:24.963Z,12.30
2018-04-28T19:16:53.268Z,12.20
2018-04-28T19:19:21.599Z,12.10
2018-04-28T19:21:49.913Z,12.10
2018-04-28T19:24:19.019Z,11.90
2018-04-28T19:26:48.155Z,11.80
2018-04-28T19:29:16.461Z,11.80
2018-04-28T19:31:44.776Z,11.70
2018-04-28T19:34:13.108Z,11.70
2018-04-28T19:36:41.895Z,11.60
2018-04-28T19:39:10.468Z,11.60
2018-04-28T19:41:39.785Z,11.50
2018-04-28T19:44:08.877Z,11.50
2018-04-28T19:46:37.328Z,11.40
2018-04-28T19:49:06.789Z,11.20
2018-04-28T19:51:35.145Z,11.20
2018-04-28T19:54:05.367Z,11.10
2018-04-28T19:56:34.498Z,11.00
2018-04-28T19:59:04.809Z,10.80
2018-04-28T20:01:33.158Z,10.80
2018-04-28T20:04:02.249Z,10.60
2018-04-28T20:06:30.591Z,10.60
2018-04-28T20:08:58.969Z,10.50
2018-04-28T20:11:27.285Z,10.50
2018-04-28T20:13:55.584Z,10.40
2018-04-28T20:16:24.703Z,10.30
2018-04-28T20:18:53.804Z,10.30
2018-04-28T20:21:22.113Z,10.30
2018-04-28T20:24:08.079Z,10.20
2018-04-28T20:26:36.366Z,10.20
2018-04-28T20:29:04.656Z,10.10
2018-04-28T20:31:32.979Z,10.00
2018-04-28T20:34:02.042Z,9.90
2018-04-28T20:36:30.361Z,9.90
2018-04-28T20:39:02.161Z,9.70
2018-04-28T20:41:31.665Z,9.70
2018-04-28T20:44:00.139Z,9.60
2018-04-28T20:46:28.461Z,9.60
2018-04-28T20:48:56.834Z,9.60
2018-04-28T20:51:25.190Z,9.50
2018-04-28T20:53:53.653Z,9.50
2018-04-28T20:56:22.729Z,9.50
2018-04-28T20:58:51.808Z,9.50
2018-04-28T21:01:22.456Z,9.50
2018-04-28T21:03:50.749Z,9.50
2018-04-28T21:06:19.117Z,9.50
2018-04-28T21:08:47.461Z,9.40
2018-04-28T21:11:15.777Z,9.40
2018-04-28T21:13:44.177Z,9.50
2018-04-28T21:16:12.492Z,9.50
2018-04-28T21:18:40.790Z,9.50
2018-04-28T21:21:09.088Z,9.50
2018-04-28T21:23:37.389Z,9.50
2018-04-28T21:26:05.749Z,9.50
2018-04-28T21:28:34.043Z,9.50
2018-04-28T21:31:02.344Z,9.50
2018-04-28T21:33:30.670Z,9.50
2018-04-28T21:35:58.986Z,9.40
2018-04-28T21:38:27.315Z,9.40
2018-04-28T21:40:55.605Z,9.40
2018-04-28T21:43:23.915Z,9.40
2018-04-28T21:45:52.209Z,9.50
2018-04-28T21:48:20.507Z,9.50
2018-04-28T21:50:48.894Z,9.50
2018-04-28T21:53:17.957Z,9.40
2018-04-28T21:55:46.258Z,9.40
2018-04-28T21:58:14.551Z,9.30
2018-04-28T22:00:42.864Z,9.30
2018-04-28T22:03:11.149Z,9.20
2018-04-28T22:05:39.449Z,9.10
2018-04-28T22:08:07.750Z,9.00
2018-04-28T22:10:36.044Z,9.00
2018-04-28T22:13:04.337Z,8.90
2018-04-28T22:15:33.407Z,8.80
2018-04-28T22:18:01.719Z,8.80
2018-04-28T22:20:30.778Z,8.70
2018-04-28T22:22:59.084Z,8.70
2018-04-28T22:25:27.374Z,8.60
2018-04-28T22:27:56.483Z,8.50
2018-04-28T22:30:25.552Z,8.50
2018-04-28T22:32:53.895Z,8.50
2018-04-28T22:35:22.211Z,8.40
2018-04-28T22:37:50.526Z,8.40
2018-04-28T22:40:19.584Z,8.30
2018-04-28T22:42:47.883Z,8.30
2018-04-28T22:45:16.187Z,8.30
2018-04-28T22:47:45.366Z,8.20
2018-04-28T22:50:14.449Z,8.10
2018-04-28T22:52:42.743Z,8.10
2018-04-28T22:55:11.043Z,8.00
2018-04-28T22:57:54.909Z,7.90
2018-04-28T23:00:33.904Z,7.90
2018-04-28T23:03:03.113Z,7.80
2018-04-28T23:05:32.187Z,7.70
2018-04-28T23:08:00.511Z,7.70
2018-04-28T23:10:28.810Z,7.70
2018-04-28T23:12:57.123Z,7.60
2018-04-28T23:15:25.573Z,7.50
2018-04-28T23:17:53.962Z,7.50
2018-04-28T23:20:22.297Z,7.40
2018-04-28T23:22:51.366Z,7.40
2018-04-28T23:25:19.669Z,7.30
2018-04-28T23:27:48.743Z,7.30
2018-04-28T23:30:17.044Z,7.30
2018-04-28T23:32:46.124Z,7.40
2018-04-28T23:35:14.506Z,7.40
2018-04-28T23:37:42.806Z,7.30
2018-04-28T23:40:11.120Z,7.30
2018-04-28T23:42:39.426Z,7.30
2018-04-28T23:45:07.722Z,7.20
2018-04-28T23:47:36.048Z,7.20
2018-04-28T23:50:05.126Z,7.20
2018-04-28T23:52:33.440Z,7.20
2018-04-28T23:55:02.070Z,7.20
2018-04-28T23:57:31.087Z,7.30
2018-04-28T23:59:59.412Z,7.30
